createdAt,value
2017-12-19T19:01:18.722Z,1031.88
2017-12-19T19:02:27.553Z,1031.9
2017-12-19T19:03:36.384Z,1031.87
2017-12-19T19:04:45.217Z,1031.91
2017-12-19T19:05:54.319Z,1031.96
2017-12-19T19:07:03.148Z,1031.92
2017-12-19T19:08:11.980Z,1031.96
2017-12-19T19:09:21.040Z,1031.97
2017-12-19T19:10:30.094Z,1031.97
2017-12-19T19:11:39.071Z,1032
2017-12-19T19:12:47.903Z,1031.97
2017-12-19T19:13:57.010Z,1032.03
2017-12-19T19:15:05.847Z,1031.97
2017-12-19T19:16:14.950Z,1031.94
2017-12-19T19:17:23.930Z,1031.89
2017-12-19T19:18:32.760Z,1031.9
2017-12-19T19:19:41.590Z,1031.85
2017-12-19T19:20:50.418Z,1031.89
2017-12-19T19:21:59.256Z,1031.85
2017-12-19T19:23:08.082Z,1031.86
2017-12-19T19:24:16.912Z,1031.86
2017-12-19T19:25:25.742Z,1031.87
2017-12-19T19:26:34.572Z,1031.85
2017-12-19T19:27:43.400Z,1031.81
2017-12-19T19:28:52.229Z,1031.71
2017-12-19T19:30:01.058Z,1031.7
2017-12-19T19:31:09.894Z,1031.68
2017-12-19T19:32:18.755Z,1031.66
2017-12-19T19:33:28.421Z,1031.7
2017-12-19T19:34:38.042Z,1031.69
2017-12-19T19:35:47.966Z,1031.68
2017-12-19T19:36:57.503Z,1031.72
2017-12-19T19:38:06.333Z,1031.7
2017-12-19T19:39:15.451Z,1031.75
2017-12-19T19:40:25.157Z,1031.75
2017-12-19T19:41:34.752Z,1031.72
2017-12-19T19:42:44.037Z,1031.65
2017-12-19T19:43:52.865Z,1031.72
2017-12-19T19:45:01.700Z,1031.7
2017-12-19T19:46:12.018Z,1031.73
2017-12-19T19:47:20.850Z,1031.75
2017-12-19T19:48:29.682Z,1031.79
2017-12-19T19:49:38.783Z,1031.77
2017-12-19T19:50:47.668Z,1031.8
2017-12-19T19:51:56.877Z,1031.77
2017-12-19T19:53:05.930Z,1031.76
2017-12-19T19:54:15.028Z,1031.73
2017-12-19T19:55:24.343Z,1031.74
2017-12-19T19:56:33.375Z,1031.81
2017-12-19T19:59:51.650Z,1031.76
2017-12-19T20:01:00.589Z,1031.8
2017-12-19T20:02:09.650Z,1031.79
2017-12-19T20:03:18.633Z,1031.83
2017-12-19T20:04:27.885Z,1031.75
2017-12-19T20:05:36.714Z,1031.75
2017-12-19T20:06:45.834Z,1031.72
2017-12-19T20:07:54.665Z,1031.71
2017-12-19T20:09:03.546Z,1031.75
2017-12-19T20:10:12.460Z,1031.76
2017-12-19T20:11:21.316Z,1031.82
2017-12-19T20:12:30.511Z,1031.81
2017-12-19T20:13:39.406Z,1031.76
2017-12-19T20:14:48.388Z,1031.82
2017-12-19T20:15:57.215Z,1031.82
2017-12-19T20:17:06.046Z,1031.83
2017-12-19T20:18:15.150Z,1031.86
2017-12-19T20:19:23.982Z,1031.83
2017-12-19T20:20:32.959Z,1031.81
2017-12-19T20:21:41.790Z,1031.83
2017-12-19T20:22:50.618Z,1031.77
2017-12-19T20:23:59.454Z,1031.74
2017-12-19T20:25:08.276Z,1031.7
2017-12-19T20:26:17.383Z,1031.73
2017-12-19T20:27:26.496Z,1031.69
2017-12-19T20:28:35.325Z,1031.67
2017-12-19T20:29:44.424Z,1031.7
2017-12-19T20:30:53.254Z,1031.74
2017-12-19T20:32:02.084Z,1031.74
2017-12-19T20:33:10.920Z,1031.7
2017-12-19T20:34:20.022Z,1031.67
2017-12-19T20:35:28.855Z,1031.61
2017-12-19T20:36:37.687Z,1031.64
2017-12-19T20:37:46.517Z,1031.65
2017-12-19T20:38:55.346Z,1031.65
2017-12-19T20:40:04.174Z,1031.59
2017-12-19T20:41:13.011Z,1031.67
2017-12-19T20:42:22.047Z,1031.68
2017-12-19T20:43:31.202Z,1031.7
2017-12-19T20:44:40.086Z,1031.72
2017-12-19T20:45:48.946Z,1031.75
2017-12-19T20:46:58.086Z,1031.76
2017-12-19T20:48:07.285Z,1031.76
2017-12-19T20:49:16.144Z,1031.75
2017-12-19T20:50:25.015Z,1031.75
2017-12-19T20:51:33.869Z,1031.74
2017-12-19T20:52:42.795Z,1031.66
2017-12-19T20:53:51.846Z,1031.66
2017-12-19T20:55:00.869Z,1031.65
2017-12-19T20:56:09.742Z,1031.67
2017-12-19T20:57:18.908Z,1031.67
2017-12-19T20:58:28.270Z,1031.69
2017-12-19T20:59:37.396Z,1031.64
2017-12-19T21:00:46.507Z,1031.69
2017-12-19T21:01:55.395Z,1031.61
2017-12-19T21:03:04.227Z,1031.61
2017-12-19T21:04:13.056Z,1031.57
2017-12-19T21:05:21.890Z,1031.55
2017-12-19T21:06:31.189Z,1031.51
2017-12-19T21:07:40.019Z,1031.49
2017-12-19T21:08:48.853Z,1031.47
2017-12-19T21:09:57.681Z,1031.51
2017-12-19T21:11:06.516Z,1031.5
2017-12-19T21:12:15.491Z,1031.57
2017-12-19T21:13:24.454Z,1031.57
2017-12-19T21:14:33.605Z,1031.51
2017-12-19T21:15:42.594Z,1031.56
2017-12-19T21:16:51.622Z,1031.54
2017-12-19T21:18:00.633Z,1031.56
2017-12-19T21:19:10.014Z,1031.55
2017-12-19T21:20:18.841Z,1031.54
2017-12-19T21:21:27.671Z,1031.52
2017-12-19T21:22:36.501Z,1031.57
2017-12-19T21:23:45.433Z,1031.55
2017-12-19T21:24:54.265Z,1031.62
2017-12-19T21:26:03.093Z,1031.61
2017-12-19T21:27:11.923Z,1031.61
2017-12-19T21:28:20.752Z,1031.58
2017-12-19T21:29:29.632Z,1031.63
2017-12-19T21:30:38.459Z,1031.67
2017-12-19T21:31:47.289Z,1031.66
2017-12-19T21:32:56.119Z,1031.71
2017-12-19T21:34:04.952Z,1031.73
2017-12-19T21:35:14.080Z,1031.79
2017-12-19T21:36:22.909Z,1031.8
2017-12-19T21:37:31.743Z,1031.84
2017-12-19T21:38:40.846Z,1031.87
2017-12-19T21:39:49.674Z,1031.84
2017-12-19T21:40:58.500Z,1031.88
2017-12-19T21:42:07.329Z,1031.86
2017-12-19T21:43:16.710Z,1031.87
2017-12-19T21:44:25.810Z,1031.92
2017-12-19T21:45:34.640Z,1031.88
2017-12-19T21:46:43.467Z,1031.89
2017-12-19T21:47:52.295Z,1031.95
2017-12-19T21:49:01.124Z,1031.97
2017-12-19T21:50:09.951Z,1031.97
2017-12-19T21:51:18.779Z,1031.94
2017-12-19T21:52:27.657Z,1031.91
2017-12-19T21:53:36.486Z,1031.91
2017-12-19T21:54:45.316Z,1031.87
2017-12-19T21:55:54.145Z,1031.89
2017-12-19T21:57:02.975Z,1031.89
2017-12-19T21:58:12.378Z,1031.87
2017-12-19T21:59:21.206Z,1031.9
2017-12-19T22:00:30.309Z,1031.91
2017-12-19T22:01:39.136Z,1031.91
2017-12-19T22:02:47.966Z,1031.96
2017-12-19T22:03:57.270Z,1031.96
2017-12-19T22:05:06.097Z,1031.94
2017-12-19T22:06:14.924Z,1031.92
2017-12-19T22:07:23.754Z,1031.95
2017-12-19T22:08:32.582Z,1031.92
2017-12-19T22:09:41.659Z,1031.96
2017-12-19T22:10:50.762Z,1031.92
2017-12-19T22:11:59.590Z,1031.89
2017-12-19T22:13:08.418Z,1031.9
2017-12-19T22:14:17.247Z,1031.96
2017-12-19T22:15:26.072Z,1031.99
2017-12-19T22:16:34.900Z,1032.02
2017-12-19T22:17:43.729Z,1032.03
2017-12-19T22:18:52.557Z,1031.98
2017-12-19T22:20:01.385Z,1032.01
2017-12-19T22:21:10.489Z,1032.01
2017-12-19T22:22:19.326Z,1032.03
2017-12-19T22:23:28.147Z,1032.02
2017-12-19T22:24:36.977Z,1032.07
2017-12-19T22:25:45.806Z,1032.05
2017-12-19T22:26:54.634Z,1032.09
2017-12-19T22:28:03.462Z,1032.07
2017-12-19T22:29:12.289Z,1032.08
2017-12-19T22:30:21.120Z,1032.05
2017-12-19T22:31:30.222Z,1032.02
2017-12-19T22:32:39.151Z,1032.04
2017-12-19T22:33:47.977Z,1032.1
2017-12-19T22:34:56.809Z,1032.07
2017-12-19T22:36:05.634Z,1032.08
2017-12-19T22:37:14.745Z,1032.09
2017-12-19T22:38:23.623Z,1032.07
2017-12-19T22:39:32.729Z,1032.1
2017-12-19T22:40:41.559Z,1032.06
2017-12-19T22:41:50.387Z,1032.06
2017-12-19T22:42:59.214Z,1032.09
2017-12-19T22:44:08.093Z,1032.12
2017-12-19T22:45:16.922Z,1032.09
2017-12-19T22:46:25.751Z,1032.06
2017-12-19T22:47:34.579Z,1032.03
2017-12-19T22:48:43.408Z,1032.04
2017-12-19T22:49:52.235Z,1031.99
2017-12-19T22:51:01.062Z,1032
2017-12-19T22:52:09.892Z,1032.02
2017-12-19T22:53:18.723Z,1032.07
2017-12-19T22:54:27.551Z,1032.06
2017-12-19T22:55:36.679Z,1032.05
2017-12-19T22:56:45.509Z,1032.05
2017-12-19T22:57:54.336Z,1031.99
2017-12-19T22:59:03.444Z,1031.98
2017-12-19T23:00:12.272Z,1031.95
2017-12-19T23:01:21.400Z,1031.95
2017-12-19T23:02:30.228Z,1031.95
2017-12-19T23:03:39.056Z,1031.94
2017-12-19T23:04:47.887Z,1031.97
2017-12-19T23:05:56.712Z,1031.97
2017-12-19T23:07:05.692Z,1031.94
2017-12-19T23:08:14.520Z,1031.95
2017-12-19T23:09:23.348Z,1031.93
2017-12-19T23:10:32.176Z,1031.96
2017-12-19T23:11:41.005Z,1031.97
2017-12-19T23:12:49.932Z,1031.92
2017-12-19T23:13:58.759Z,1031.9
2017-12-19T23:15:07.586Z,1031.95
2017-12-19T23:16:16.415Z,1032.01
2017-12-19T23:17:25.244Z,1031.99
2017-12-19T23:18:34.449Z,1032.01
2017-12-19T23:19:43.275Z,1032
2017-12-19T23:20:52.108Z,1032.01
2017-12-19T23:22:00.936Z,1031.99
2017-12-19T23:23:09.765Z,1032.01
2017-12-19T23:24:18.645Z,1032.03
2017-12-19T23:25:27.746Z,1031.97
2017-12-19T23:26:36.571Z,1031.96
2017-12-19T23:27:45.398Z,1031.94
2017-12-19T23:28:54.228Z,1031.87
2017-12-19T23:30:03.310Z,1031.82
2017-12-19T23:31:12.134Z,1031.84
2017-12-19T23:32:20.961Z,1031.79
2017-12-19T23:33:29.789Z,1031.81
2017-12-19T23:34:38.616Z,1031.76
2017-12-19T23:35:47.694Z,1031.74
2017-12-19T23:36:56.523Z,1031.76
2017-12-19T23:38:05.626Z,1031.78
2017-12-19T23:39:14.451Z,1031.76
2017-12-19T23:40:23.279Z,1031.79
2017-12-19T23:41:32.407Z,1031.83
2017-12-19T23:42:41.235Z,1031.79
2017-12-19T23:43:50.064Z,1031.71
2017-12-19T23:44:59.168Z,1031.71
2017-12-19T23:46:08.000Z,1031.7
2017-12-19T23:47:16.978Z,1031.74
2017-12-19T23:48:25.808Z,1031.79
2017-12-19T23:49:34.637Z,1031.78
2017-12-19T23:50:43.462Z,1031.76
2017-12-19T23:51:52.347Z,1031.71
2017-12-19T23:53:01.119Z,1031.7
2017-12-19T23:54:10.221Z,1031.69
2017-12-19T23:55:19.049Z,1031.74
2017-12-19T23:56:27.875Z,1031.75
2017-12-19T23:57:36.979Z,1031.74
2017-12-19T23:58:45.856Z,1031.72
2017-12-19T23:59:54.685Z,1031.75
